Weaver, Minnesota
Current Conditions -  °F | °C
As of 7:35 AM on Thursday 23 Oct 2014 (Local Time) from KONA Reporting Station
Light Rain Light Rain  
Wind Chill:   Ceiling: 2700
Heat Index:   Visibility: 10mi
Dew Point:   Wind: 5mph
Humidity: 93%   Direction: 140°SE
Pressure: 30.04"   Gusts: NA
Location:  44.1503°N, 91.9879°W
Report Text: KONA 231235Z AUTO 14004KT 10SM -RA OVC027 09/08 A3004 RMK AO2
Loading
Personal Weather Stations






























Interactive Weather Map
Tropical Storm Tracking
New forecast layout! Learn more

10-Day Weather Forecast

Advertisements
Track Severe Weather on mobile